Time;durP1;ratioP1;P1;durP2;ratioP2;P2;SDS_P1;SDS_P2;PMS_P1;PMS_P2;Temp;Humidity;BMP_temperature;BMP_pressure;BME280_temperature;BME280_humidity;BME280_pressure;Samples;Min_cycle;Max_cycle;Signal;HPM_P1;HPM_P2
2023/04/26 00:01:22;;;;;;;14.17;5.50;;;5.30;76.50;;;;;;5095659;28;20183;-70
2023/04/26 00:03:48;;;;;;;10.03;5.03;;;5.30;74.20;;;;;;5096057;28;20172;-69
2023/04/26 00:06:15;;;;;;;9.80;5.53;;;5.30;72.80;;;;;;5096053;28;20225;-69
2023/04/26 00:08:42;;;;;;;10.70;5.70;;;5.30;75.00;;;;;;5096004;28;20219;-68
2023/04/26 00:11:07;;;;;;;10.20;5.50;;;5.30;74.40;;;;;;5094531;28;20182;-68
2023/04/26 00:13:33;;;;;;;11.27;5.50;;;5.30;73.30;;;;;;5095980;28;20631;-69
2023/04/26 00:15:59;;;;;;;11.93;5.07;;;5.30;72.50;;;;;;5095529;28;20183;-69
2023/04/26 00:18:24;;;;;;;11.93;5.60;;;5.30;70.40;;;;;;5095568;28;20267;-69
2023/04/26 00:20:50;;;;;;;12.27;5.53;;;5.30;68.10;;;;;;5095563;28;20182;-69
2023/04/26 00:23:17;;;;;;;12.13;5.33;;;5.30;69.30;;;;;;5094464;28;20365;-69
2023/04/26 00:25:43;;;;;;;11.90;5.00;;;5.20;74.20;;;;;;5095464;28;20647;-68
2023/04/26 00:28:08;;;;;;;13.27;5.60;;;5.20;77.40;;;;;;5095547;28;20244;-69
2023/04/26 00:30:36;;;;;;;10.53;5.47;;;5.10;80.40;;;;;;5095076;28;20224;-69
2023/04/26 00:33:02;;;;;;;11.53;5.30;;;5.20;83.10;;;;;;5095503;28;20574;-69
2023/04/26 00:35:28;;;;;;;10.30;5.30;;;5.20;79.10;;;;;;5095213;28;20168;-69
2023/04/26 00:37:53;;;;;;;11.67;5.93;;;5.10;79.50;;;;;;5095334;28;20694;-68
2023/04/26 00:40:19;;;;;;;9.13;5.30;;;5.20;83.20;;;;;;5095156;28;20179;-69
2023/04/26 00:42:45;;;;;;;15.57;6.53;;;5.30;84.70;;;;;;5095211;28;20238;-69
2023/04/26 00:45:10;;;;;;;12.07;5.90;;;5.20;81.70;;;;;;5094764;28;20175;-68
2023/04/26 00:47:36;;;;;;;11.27;5.47;;;5.30;82.00;;;;;;5095132;28;20695;-69
2023/04/26 00:50:03;;;;;;;11.67;5.83;;;5.30;80.10;;;;;;5095091;28;20669;-69
2023/04/26 00:52:30;;;;;;;7.80;5.17;;;5.30;77.60;;;;;;5095340;28;20190;-69
2023/04/26 00:54:56;;;;;;;11.63;6.13;;;5.40;76.00;;;;;;5095067;28;20688;-69
2023/04/26 00:57:22;;;;;;;14.43;6.00;;;5.40;74.00;;;;;;5094932;28;20211;-69
2023/04/26 00:59:48;;;;;;;14.30;6.20;;;5.30;74.40;;;;;;5093292;28;20271;-69
2023/04/26 01:02:14;;;;;;;11.70;5.50;;;5.30;74.50;;;;;;5093807;28;20208;-69
2023/04/26 01:04:40;;;;;;;12.30;5.43;;;5.30;74.90;;;;;;5094914;28;20186;-69
2023/04/26 01:07:07;;;;;;;11.20;6.23;;;5.30;74.70;;;;;;5076777;28;20706;-69
2023/04/26 01:09:33;;;;;;;12.13;5.93;;;5.30;73.30;;;;;;5093442;28;20207;-69
2023/04/26 01:12:00;;;;;;;11.80;6.13;;;5.20;72.40;;;;;;5094651;28;20203;-69
2023/04/26 01:14:26;;;;;;;11.07;5.97;;;5.10;72.90;;;;;;5094462;28;20171;-68
2023/04/26 01:16:51;;;;;;;12.80;6.50;;;5.20;78.10;;;;;;5094450;28;20208;-69
2023/04/26 01:19:17;;;;;;;18.13;7.10;;;5.20;80.10;;;;;;5094742;28;20531;-69
2023/04/26 01:21:43;;;;;;;9.93;6.60;;;5.20;84.80;;;;;;5093178;28;20179;-69
2023/04/26 01:24:11;;;;;;;12.37;6.53;;;5.20;86.50;;;;;;5094424;28;20168;-69
2023/04/26 01:26:46;;;;;;;17.83;6.90;;;5.30;86.40;;;;;;5094482;28;20222;-69
2023/04/26 01:29:23;;;;;;;12.97;6.10;;;5.20;83.70;;;;;;5094005;28;20282;-68
2023/04/26 01:31:48;;;;;;;18.47;7.30;;;5.20;90.90;;;;;;5094337;28;20172;-68
2023/04/26 01:34:14;;;;;;;14.17;6.63;;;5.20;91.50;;;;;;5094420;28;20236;-69
2023/04/26 01:36:40;;;;;;;16.37;7.10;;;5.20;91.20;;;;;;5094126;28;20577;-68
2023/04/26 01:39:07;;;;;;;12.20;6.50;;;5.30;90.40;;;;;;5094393;28;20164;-69
2023/04/26 01:41:33;;;;;;;13.70;6.80;;;5.20;88.10;;;;;;5093466;28;20164;-68
2023/04/26 01:43:59;;;;;;;15.30;7.10;;;5.10;89.70;;;;;;5092834;28;20641;-68
2023/04/26 01:46:25;;;;;;;13.57;6.87;;;5.00;91.50;;;;;;5093976;28;20252;-69
2023/04/26 01:48:50;;;;;;;11.23;6.57;;;5.00;92.70;;;;;;5094061;28;20603;-68
2023/04/26 01:51:16;;;;;;;14.97;6.97;;;5.10;93.10;;;;;;5093929;28;20167;-68
2023/04/26 01:53:42;;;;;;;14.30;7.20;;;5.10;93.30;;;;;;5094027;28;20186;-69
2023/04/26 01:56:08;;;;;;;13.97;7.33;;;5.10;93.40;;;;;;5093451;28;20172;-69
2023/04/26 01:58:33;;;;;;;15.37;6.93;;;5.10;93.90;;;;;;5093652;28;20204;-69
2023/04/26 02:01:07;;;;;;;11.43;6.40;;;5.10;94.90;;;;;;5093654;28;20164;-68
2023/04/26 02:03:33;;;;;;;18.17;7.03;;;5.00;97.00;;;;;;5092632;28;20179;-69
2023/04/26 02:05:59;;;;;;;11.67;6.67;;;5.00;97.80;;;;;;5093503;28;20611;-68
2023/04/26 02:08:24;;;;;;;14.63;6.87;;;5.00;98.90;;;;;;5093544;28;20301;-69
2023/04/26 02:10:50;;;;;;;12.60;6.87;;;4.90;99.50;;;;;;5093000;28;20216;-68
2023/04/26 02:13:15;;;;;;;15.60;7.67;;;4.90;99.90;;;;;;5093068;28;20269;-69
2023/04/26 02:15:45;;;;;;;18.07;8.83;;;5.00;99.70;;;;;;5093365;28;20270;-68
2023/04/26 02:18:11;;;;;;;21.60;7.90;;;5.00;99.00;;;;;;5092136;28;20734;-68
2023/04/26 02:20:43;;;;;;;18.20;8.53;;;5.00;98.30;;;;;;5092063;28;20658;-69
2023/04/26 02:23:09;;;;;;;29.20;8.30;;;5.00;97.80;;;;;;5093542;28;20170;-68
2023/04/26 02:25:36;;;;;;;19.70;7.60;;;4.90;98.20;;;;;;5092893;28;20608;-68
2023/04/26 02:28:02;;;;;;;17.83;7.73;;;4.90;98.40;;;;;;5093459;28;20168;-68
2023/04/26 02:30:28;;;;;;;20.13;7.10;;;4.90;99.20;;;;;;5093221;28;20189;-70
2023/04/26 02:32:54;;;;;;;14.37;7.50;;;4.90;99.80;;;;;;5093356;28;20171;-68
2023/04/26 02:35:20;;;;;;;15.33;7.77;;;4.90;99.90;;;;;;5093300;28;20175;-69
2023/04/26 02:37:48;;;;;;;14.47;7.53;;;4.90;99.90;;;;;;5093100;28;20220;-70
2023/04/26 02:40:15;;;;;;;14.47;7.33;;;4.80;99.90;;;;;;5092764;28;20172;-69
2023/04/26 02:42:41;;;;;;;11.80;7.50;;;4.80;99.90;;;;;;5093121;28;20219;-69
2023/04/26 02:45:07;;;;;;;14.63;7.10;;;4.80;99.90;;;;;;5092099;28;20649;-68
2023/04/26 02:47:35;;;;;;;17.47;7.57;;;4.80;99.90;;;;;;5093047;28;20168;-68
2023/04/26 02:50:01;;;;;;;14.90;7.67;;;4.80;99.90;;;;;;5093203;28;20228;-69
2023/04/26 02:52:27;;;;;;;15.20;7.50;;;4.90;99.90;;;;;;5092976;28;20172;-69
2023/04/26 02:54:52;;;;;;;13.63;7.13;;;4.90;99.90;;;;;;5091518;28;20179;-69
2023/04/26 02:57:18;;;;;;;14.87;7.40;;;5.00;99.90;;;;;;5092675;28;20302;-68
2023/04/26 02:59:44;;;;;;;13.13;7.60;;;5.00;99.90;;;;;;5093051;28;20160;-69
2023/04/26 03:02:09;;;;;;;13.53;7.67;;;4.90;99.90;;;;;;5093002;28;20489;-68
2023/04/26 03:04:35;;;;;;;13.27;7.00;;;4.90;99.90;;;;;;5092993;28;20164;-69
2023/04/26 03:07:03;;;;;;;14.83;7.20;;;4.90;99.90;;;;;;5091655;28;20179;-68
2023/04/26 03:09:29;;;;;;;21.27;7.90;;;5.00;99.90;;;;;;5092551;28;20168;-69
2023/04/26 03:11:55;;;;;;;20.67;7.90;;;5.00;99.90;;;;;;5092642;28;20639;-68
2023/04/26 03:14:21;;;;;;;12.97;7.40;;;5.00;99.90;;;;;;5093151;28;20183;-69
2023/04/26 03:16:47;;;;;;;15.27;7.40;;;5.00;99.90;;;;;;5092610;28;20728;-68
2023/04/26 03:19:13;;;;;;;17.77;7.20;;;5.00;99.90;;;;;;5092617;28;20180;-69
2023/04/26 03:21:39;;;;;;;18.63;7.63;;;5.10;99.90;;;;;;5092570;28;20187;-69
2023/04/26 03:24:05;;;;;;;14.60;7.40;;;5.00;99.90;;;;;;5093078;28;20180;-69
2023/04/26 03:26:31;;;;;;;14.20;7.43;;;5.00;99.90;;;;;;5096504;28;20164;-68
2023/04/26 03:28:56;;;;;;;15.23;7.90;;;4.90;99.90;;;;;;5096423;28;20202;-69
2023/04/26 03:31:22;;;;;;;13.60;7.50;;;4.80;99.90;;;;;;5096332;28;20188;-69
2023/04/26 03:33:48;;;;;;;12.87;7.10;;;4.80;99.90;;;;;;5096560;28;20172;-69
2023/04/26 03:36:14;;;;;;;15.60;7.77;;;4.80;99.90;;;;;;5094633;28;20168;-68
2023/04/26 03:38:41;;;;;;;17.00;7.33;;;4.80;99.90;;;;;;5095982;28;20200;-69
2023/04/26 03:41:07;;;;;;;18.33;7.67;;;4.80;99.90;;;;;;5096307;28;20160;-69
2023/04/26 03:43:33;;;;;;;16.40;8.37;;;4.90;99.90;;;;;;5095880;28;20223;-69
2023/04/26 03:45:59;;;;;;;14.97;7.87;;;4.90;99.90;;;;;;5096159;28;20518;-69
2023/04/26 03:48:26;;;;;;;17.93;8.23;;;4.90;99.90;;;;;;5095982;28;20178;-67
2023/04/26 03:50:51;;;;;;;17.00;8.30;;;5.00;99.90;;;;;;5096440;28;20164;-69
2023/04/26 03:53:17;;;;;;;16.17;8.17;;;5.00;99.90;;;;;;5095438;28;20508;-69
2023/04/26 03:55:43;;;;;;;15.67;7.77;;;4.90;99.90;;;;;;5095312;28;20169;-69
2023/04/26 03:58:08;;;;;;;13.93;7.13;;;4.90;99.90;;;;;;5095752;28;20203;-69
2023/04/26 04:00:36;;;;;;;17.30;8.93;;;4.80;99.90;;;;;;5096075;28;20486;-67
2023/04/26 04:03:02;;;;;;;15.40;7.73;;;4.80;99.90;;;;;;5095936;28;20160;-68
2023/04/26 04:05:29;;;;;;;12.93;7.43;;;4.70;99.90;;;;;;5095708;28;20183;-69
2023/04/26 04:07:55;;;;;;;15.10;7.70;;;4.60;99.90;;;;;;5094965;28;20175;-69
2023/04/26 04:10:22;;;;;;;17.20;8.53;;;4.70;99.90;;;;;;5095597;28;20172;-68
2023/04/26 04:12:48;;;;;;;15.10;8.30;;;4.70;99.90;;;;;;5095209;28;20167;-69
2023/04/26 04:15:15;;;;;;;19.17;7.97;;;4.80;99.90;;;;;;5095710;28;20168;-68
2023/04/26 04:17:41;;;;;;;15.07;8.57;;;4.80;99.90;;;;;;5093993;28;20543;-68
2023/04/26 04:20:07;;;;;;;15.23;8.57;;;4.90;99.90;;;;;;5095546;28;20175;-69
2023/04/26 04:22:33;;;;;;;17.47;8.10;;;4.90;99.90;;;;;;5094750;28;20168;-69
2023/04/26 04:24:59;;;;;;;15.63;8.20;;;5.00;99.90;;;;;;5095448;28;20191;-68
2023/04/26 04:27:25;;;;;;;18.17;8.37;;;5.00;99.90;;;;;;5094842;28;20176;-68
2023/04/26 04:29:52;;;;;;;17.13;8.20;;;5.00;99.90;;;;;;5095148;28;20196;-69
2023/04/26 04:32:18;;;;;;;16.33;7.70;;;5.10;99.90;;;;;;5094923;28;20164;-68
2023/04/26 04:34:44;;;;;;;15.30;8.27;;;5.20;99.90;;;;;;5094385;28;20172;-69
2023/04/26 04:37:10;;;;;;;12.90;8.27;;;5.30;99.90;;;;;;5092887;28;20257;-67
2023/04/26 04:39:36;;;;;;;20.33;9.40;;;5.30;99.90;;;;;;5095208;28;20175;-68
2023/04/26 04:42:02;;;;;;;20.70;9.10;;;5.40;99.90;;;;;;5094980;28;20727;-68
2023/04/26 04:44:28;;;;;;;19.60;7.50;;;5.50;99.90;;;;;;5094805;28;20255;-69
2023/04/26 04:46:53;;;;;;;20.17;8.60;;;5.70;99.90;;;;;;5094550;28;20168;-68
2023/04/26 04:49:19;;;;;;;16.50;7.83;;;5.80;99.90;;;;;;5094666;28;20179;-68
2023/04/26 04:51:45;;;;;;;15.90;7.73;;;6.00;99.90;;;;;;5093886;28;20168;-69
2023/04/26 04:54:14;;;;;;;22.97;7.70;;;6.10;95.80;;;;;;5094343;28;20171;-69
2023/04/26 04:56:40;;;;;;;24.80;8.90;;;6.10;95.50;;;;;;5094063;28;20203;-67
2023/04/26 04:59:07;;;;;;;23.77;8.07;;;6.40;93.90;;;;;;5092825;28;20172;-69
2023/04/26 05:01:33;;;;;;;18.23;7.57;;;6.70;86.90;;;;;;5094507;28;20604;-69
2023/04/26 05:03:59;;;;;;;22.00;8.17;;;7.20;78.30;;;;;;5094285;28;20176;-69
2023/04/26 05:06:28;;;;;;;21.43;8.37;;;7.70;63.40;;;;;;5093596;28;20172;-68
2023/04/26 05:08:55;;;;;;;19.67;8.63;;;8.30;49.00;;;;;;5093714;28;20179;-68
2023/04/26 05:11:20;;;;;;;20.80;8.27;;;8.70;25.90;;;;;;5094704;28;20199;-67
2023/04/26 05:13:47;;;;;;;20.77;8.00;;;8.70;6.90;;;;;;5092557;28;20615;-68
2023/04/26 05:16:12;;;;;;;22.63;8.40;;;8.60;3.20;;;;;;5093872;28;20191;-69
2023/04/26 05:18:38;;;;;;;22.53;8.67;;;8.70;11.30;;;;;;5094135;28;20208;-68
2023/04/26 05:21:04;;;;;;;25.67;9.00;;;9.20;4.40;;;;;;5093307;28;20176;-69
2023/04/26 05:23:30;;;;;;;20.13;8.33;;;9.70;1.00;;;;;;5093813;28;20187;-70
2023/04/26 05:25:56;;;;;;;25.60;8.40;;;10.10;1.00;;;;;;5094011;28;20574;-68
2023/04/26 05:28:21;;;;;;;17.17;7.97;;;10.20;1.00;;;;;;5093233;28;20620;-69
2023/04/26 05:30:48;;;;;;;19.07;7.43;;;10.30;1.00;;;;;;5093620;28;20200;-69
2023/04/26 05:33:14;;;;;;;20.90;8.17;;;10.00;1.00;;;;;;5092904;28;20168;-69
2023/04/26 05:35:40;;;;;;;23.80;8.60;;;10.00;1.00;;;;;;5093108;28;20164;-68
2023/04/26 05:38:06;;;;;;;20.63;8.70;;;10.10;1.00;;;;;;5093315;28;20207;-69
2023/04/26 05:40:31;;;;;;;24.63;8.37;;;10.10;1.00;;;;;;5092624;28;20228;-68
2023/04/26 05:42:57;;;;;;;22.93;8.57;;;10.00;1.00;;;;;;5092896;28;20251;-68
2023/04/26 05:45:23;;;;;;;26.33;9.30;;;10.50;1.00;;;;;;5092591;28;20179;-69
2023/04/26 05:47:50;;;;;;;33.73;11.00;;;11.60;1.00;;;;;;5091680;28;20171;-68
2023/04/26 05:50:15;;;;;;;21.33;8.97;;;12.40;1.00;;;;;;5092087;28;20226;-69
2023/04/26 05:52:41;;;;;;;32.77;9.17;;;12.50;1.00;;;;;;5093359;28;20200;-70
2023/04/26 05:55:07;;;;;;;26.20;9.17;;;12.60;1.00;;;;;;5093325;28;20179;-69
2023/04/26 05:57:33;;;;;;;20.37;8.40;;;12.60;1.00;;;;;;5092482;28;20260;-68
2023/04/26 05:59:59;;;;;;;14.23;8.40;;;12.20;1.00;;;;;;5092035;28;20190;-70
2023/04/26 06:02:25;;;;;;;24.47;9.60;;;12.10;1.00;;;;;;5092243;28;20178;-69
2023/04/26 06:04:50;;;;;;;22.07;9.43;;;11.90;1.00;;;;;;5090826;28;20180;-69
2023/04/26 06:07:16;;;;;;;23.10;8.80;;;11.40;1.00;;;;;;5092921;28;20179;-69
2023/04/26 06:09:42;;;;;;;21.97;8.90;;;11.40;1.00;;;;;;5091731;28;20179;-69
2023/04/26 06:12:07;;;;;;;20.47;8.53;;;11.40;1.00;;;;;;5092763;28;20179;-69
2023/04/26 06:14:33;;;;;;;21.40;8.90;;;11.30;1.00;;;;;;5091840;28;20536;-69
2023/04/26 06:16:59;;;;;;;28.93;9.67;;;11.70;1.00;;;;;;5090495;28;20257;-70
2023/04/26 06:19:25;;;;;;;26.20;9.67;;;12.50;1.00;;;;;;5091130;28;20175;-67
2023/04/26 06:21:54;;;;;;;20.33;9.30;;;13.90;99.90;;;;;;5091675;28;20511;-69
2023/04/26 06:24:20;;;;;;;18.73;9.23;;;14.70;1.00;;;;;;5091115;28;20638;-70
2023/04/26 06:26:45;;;;;;;23.43;9.83;;;14.60;1.00;;;;;;5091121;28;20628;-69
2023/04/26 06:29:11;;;;;;;21.37;9.40;;;14.50;36.10;;;;;;5090984;28;20238;-69
2023/04/26 06:31:36;;;;;;;25.43;9.60;;;14.00;99.90;;;;;;5091198;28;20199;-68
2023/04/26 06:34:03;;;;;;;27.00;10.07;;;13.70;1.00;;;;;;5091546;28;20266;-69
2023/04/26 06:36:29;;;;;;;25.33;9.50;;;13.10;1.00;;;;;;5111798;28;20177;-68
2023/04/26 06:38:55;;;;;;;19.50;8.90;;;12.40;99.90;;;;;;5111650;28;20232;-69
2023/04/26 06:41:21;;;;;;;19.70;9.03;;;11.60;1.00;;;;;;5111790;28;20167;-69
2023/04/26 06:43:47;;;;;;;18.30;8.43;;;11.70;1.00;;;;;;5110852;28;20219;-68
2023/04/26 06:46:13;;;;;;;15.87;8.77;;;11.60;1.00;;;;;;5091103;28;20631;-68
2023/04/26 06:48:38;;;;;;;20.37;9.73;;;11.60;1.00;;;;;;5090833;28;20262;-68
2023/04/26 06:51:07;;;;;;;20.80;8.87;;;11.70;1.00;;;;;;5091555;28;20565;-69
2023/04/26 06:53:35;;;;;;;19.30;8.80;;;11.50;1.00;;;;;;5087158;28;20180;-68
2023/04/26 06:56:01;;;;;;;11.70;6.40;;;11.20;1.00;;;;;;5071152;28;20191;-71
2023/04/26 06:58:26;;;;;;;11.30;5.80;;;10.50;1.00;;;;;;5080315;28;20203;-73
2023/04/26 07:01:12;;;;;;;13.00;5.47;;;10.50;1.00;;;;;;5089585;28;20254;-71
2023/04/26 07:03:41;;;;;;;9.67;4.70;;;10.30;1.00;;;;;;5094214;28;20266;-71
2023/04/26 07:06:06;;;;;;;13.83;4.73;;;10.40;1.00;;;;;;5102939;28;20194;-73
2023/04/26 07:08:32;;;;;;;9.10;4.40;;;10.50;1.00;;;;;;5109877;28;20175;-70
2023/04/26 07:10:58;;;;;;;9.43;4.13;;;10.70;99.90;;;;;;5083818;28;20211;-73
2023/04/26 07:13:23;;;;;;;11.97;4.77;;;10.20;1.00;;;;;;5104745;28;20181;-72
2023/04/26 07:15:50;;;;;;;8.13;4.47;;;10.50;1.00;;;;;;5096552;28;20596;-71
2023/04/26 07:18:15;;;;;;;7.77;4.43;;;10.70;99.90;;;;;;5094088;28;20222;-71
2023/04/26 07:20:43;;;;;;;9.73;4.50;;;10.50;1.00;;;;;;5093813;28;20175;-70
2023/04/26 07:23:09;;;;;;;7.77;4.23;;;10.00;1.00;;;;;;5089311;28;20530;-70
2023/04/26 07:25:35;;;;;;;8.77;4.00;;;9.40;1.00;;;;;;5093930;28;20175;-70
2023/04/26 07:28:00;;;;;;;40.43;15.63;;;9.20;1.00;;;;;;5085605;28;20181;-71
2023/04/26 07:30:26;;;;;;;24.07;8.37;;;9.40;1.00;;;;;;5106492;28;20575;-74
2023/04/26 07:32:52;;;;;;;10.67;6.63;;;9.70;1.00;;;;;;5097318;28;20301;-74
2023/04/26 07:35:17;;;;;;;6.60;3.60;;;9.90;1.00;;;;;;5101403;28;20579;-71
2023/04/26 07:37:43;;;;;;;14.03;4.47;;;9.90;1.00;;;;;;5094726;28;20711;-71
2023/04/26 07:40:10;;;;;;;5.10;3.93;;;10.10;1.00;;;;;;5096901;28;20172;-68
2023/04/26 07:42:39;;;;;;;9.47;3.77;;;10.40;1.00;;;;;;5091709;28;20264;-69
2023/04/26 07:45:05;;;;;;;7.50;3.80;;;10.80;99.90;;;;;;5092836;28;20197;-68
2023/04/26 07:47:31;;;;;;;8.97;3.73;;;11.60;1.00;;;;;;5092285;28;20247;-69
2023/04/26 07:49:56;;;;;;;7.47;3.40;;;12.80;1.00;;;;;;5093034;28;20256;-68
2023/04/26 07:52:25;;;;;;;9.00;3.47;;;13.40;1.00;;;;;;5105605;28;20266;-69
2023/04/26 07:54:53;;;;;;;6.30;3.80;;;13.70;1.00;;;;;;5084998;28;20198;-67
2023/04/26 07:57:18;;;;;;;6.53;3.90;;;13.40;99.90;;;;;;5094525;28;20222;-67
2023/04/26 07:59:44;;;;;;;9.57;4.70;;;12.40;99.90;;;;;;5096426;28;20179;-69
2023/04/26 08:02:10;;;;;;;4.83;3.53;;;12.00;99.90;;;;;;5099627;28;20186;-72
2023/04/26 08:04:36;;;;;;;10.73;5.03;;;11.40;1.00;;;;;;5081057;28;20180;-66
2023/04/26 08:07:01;;;;;;;6.43;3.93;;;12.10;99.90;;;;;;5107604;28;20199;-68
2023/04/26 08:09:29;;;;;;;9.23;3.67;;;12.80;99.90;;;;;;5110272;28;20518;-67
2023/04/26 08:11:55;;;;;;;7.30;4.20;;;13.00;99.90;;;;;;5113068;28;20247;-66
2023/04/26 08:14:20;;;;;;;8.67;3.70;;;13.70;1.00;;;;;;5094542;28;20259;-67
2023/04/26 08:16:46;;;;;;;8.87;4.77;;;13.40;1.00;;;;;;5094145;28;20164;-66
2023/04/26 08:19:12;;;;;;;13.43;8.03;;;12.20;1.00;;;;;;5094527;28;20266;-66
2023/04/26 08:21:37;;;;;;;11.07;5.93;;;11.80;1.00;;;;;;5094426;28;20160;-69
2023/04/26 08:24:03;;;;;;;10.10;5.13;;;12.20;1.00;;;;;;5094624;28;20179;-67
2023/04/26 08:26:29;;;;;;;9.90;4.53;;;12.90;1.00;;;;;;5094773;28;20658;-66
2023/04/26 08:28:56;;;;;;;9.57;4.27;;;13.70;1.00;;;;;;5093411;28;20241;-67
2023/04/26 08:31:21;;;;;;;7.80;4.73;;;14.60;95.70;;;;;;5093272;28;20176;-69
2023/04/26 08:34:12;;;;;;;9.10;4.87;;;15.80;1.00;;;;;;5093749;28;20202;-66
2023/04/26 08:36:38;;;;;;;8.93;4.67;;;15.90;1.00;;;;;;5092146;28;20221;-68
2023/04/26 08:39:04;;;;;;;9.95;5.15;;;17.20;1.00;;;;;;5094512;28;20172;-67
2023/04/26 08:41:41;;;;;;;12.93;5.00;;;18.50;99.90;;;;;;5094283;28;20220;-68
2023/04/26 08:44:07;;;;;;;11.10;5.25;;;19.60;99.90;;;;;;5094002;28;20218;-68
2023/04/26 08:46:49;;;;;;;7.70;5.03;;;19.40;99.90;;;;;;5092615;28;20176;-69
2023/04/26 08:49:28;;;;;;;8.60;4.63;;;20.00;99.90;;;;;;5094814;28;20232;-67
2023/04/26 08:51:56;;;;;;;6.15;4.18;;;20.30;99.90;;;;;;5093437;28;20175;-68
2023/04/26 08:54:24;;;;;;;5.60;3.70;;;22.00;99.90;;;;;;5094338;28;20183;-67
2023/04/26 08:56:51;;;;;;;6.95;4.00;;;21.10;99.90;;;;;;5083261;28;20212;-68
2023/04/26 08:59:17;;;;;;;8.73;4.18;;;19.90;99.90;;;;;;5073560;28;20180;-67
2023/04/26 09:01:43;;;;;;;7.32;4.50;;;18.80;99.90;;;;;;5073740;28;20194;-65
2023/04/26 09:04:09;;;;;;;6.35;3.95;;;18.00;99.90;;;;;;5083110;28;20179;-66
2023/04/26 09:06:35;;;;;;;8.70;5.68;;;17.90;99.90;;;;;;5093973;28;20172;-65
2023/04/26 09:09:06;;;;;;;6.50;4.70;;;17.30;99.90;;;;;;5094049;28;20183;-65
2023/04/26 09:12:00;;;;;;;6.20;4.60;;;16.00;99.90;;;;;;5092530;28;20174;-66
2023/04/26 09:14:26;;;;;;;11.15;5.53;;;15.40;1.00;;;;;;5092831;28;20207;-67
2023/04/26 09:16:52;;;;;;;9.18;5.70;;;15.80;1.00;;;;;;5093566;28;20200;-65
2023/04/26 09:19:41;;;;;;;8.77;6.00;;;16.70;99.90;;;;;;5092598;28;20190;-66
2023/04/26 09:22:07;;;;;;;6.88;6.05;;;17.10;99.90;;;;;;5093002;28;20174;-67
2023/04/26 09:24:53;;;;;;;10.02;6.22;;;17.70;99.90;;;;;;5092991;28;20176;-68
2023/04/26 09:27:20;;;;;;;9.25;6.40;;;18.70;99.90;;;;;;5092577;28;20579;-67
2023/04/26 09:30:19;;;;;;;7.88;5.07;;;18.70;99.90;;;;;;5092579;28;20654;-67
2023/04/26 09:32:45;;;;;;;7.32;5.65;;;18.40;99.90;;;;;;5092147;28;20243;-66
2023/04/26 09:35:33;;;;;;;9.10;5.30;;;18.10;99.90;;;;;;5092943;28;20202;-67
2023/04/26 09:38:07;;;;;;;9.73;4.93;;;18.30;99.90;;;;;;5092487;28;20231;-68
2023/04/26 09:40:37;;;;;;;8.57;5.25;;;17.80;99.90;;;;;;5092327;28;20156;-67
2023/04/26 09:43:20;;;;;;;10.80;5.20;;;18.10;99.90;;;;;;5092375;28;20698;-68
2023/04/26 09:45:50;;;;;;;9.23;6.30;;;18.10;99.90;;;;;;5092322;28;20199;-67
2023/04/26 09:48:21;;;;;;;11.27;6.43;;;16.90;99.90;;;;;;5093072;28;20698;-67
2023/04/26 09:50:57;;;;;;;11.27;6.45;;;16.90;99.90;;;;;;5092922;28;20250;-67
2023/04/26 09:53:44;;;;;;;11.15;5.97;;;16.60;99.90;;;;;;5091667;28;20203;-67
2023/04/26 09:56:20;;;;;;;9.30;5.68;;;16.10;99.90;;;;;;5091636;28;20308;-67
2023/04/26 09:58:46;;;;;;;8.68;5.65;;;16.70;99.90;;;;;;5092670;28;20252;-67
2023/04/26 10:01:15;;;;;;;8.75;5.38;;;17.30;99.90;;;;;;5092523;28;20172;-67
2023/04/26 10:03:41;;;;;;;9.02;4.65;;;16.10;99.90;;;;;;5090702;28;20191;-67
2023/04/26 10:06:07;;;;;;;8.53;4.53;;;15.50;99.90;;;;;;5088415;28;20171;-70
2023/04/26 10:08:33;;;;;;;7.20;4.80;;;15.10;99.90;;;;;;5080233;28;20176;-68
2023/04/26 10:11:03;;;;;;;7.00;4.47;;;15.30;99.90;;;;;;5089453;28;20266;-69
2023/04/26 10:13:31;;;;;;;5.60;5.03;;;16.20;99.90;;;;;;5089462;28;20182;-70
2023/04/26 10:15:59;;;;;;;9.50;5.63;;;16.50;99.90;;;;;;5082560;28;20199;-68
2023/04/26 10:18:25;;;;;;;4.78;4.13;;;16.50;99.90;;;;;;5088777;28;20276;-69
2023/04/26 10:20:55;;;;;;;8.60;4.13;;;17.60;99.90;;;;;;5090199;28;20595;-70
2023/04/26 10:23:26;;;;;;;7.85;4.10;;;18.30;99.90;;;;;;5089850;28;20191;-68
2023/04/26 10:25:53;;;;;;;6.72;4.05;;;18.50;99.90;;;;;;5090577;28;20218;-69
2023/04/26 10:28:44;;;;;;;4.32;3.67;;;17.30;99.90;;;;;;5092067;28;20202;-68
2023/04/26 10:31:11;;;;;;;7.63;4.15;;;15.70;99.90;;;;;;5091625;28;20259;-69
2023/04/26 10:33:36;;;;;;;5.87;3.80;;;16.30;99.90;;;;;;5092249;28;20266;-69
2023/04/26 10:36:05;;;;;;;5.70;4.60;;;16.50;99.90;;;;;;5092119;28;20266;-70
2023/04/26 10:38:32;;;;;;;7.00;3.95;;;17.00;99.90;;;;;;5091425;28;20200;-69
2023/04/26 10:41:31;;;;;;;5.35;3.92;;;17.50;99.90;;;;;;5092408;28;20160;-70
2023/04/26 10:43:59;;;;;;;8.23;4.20;;;17.90;99.90;;;;;;5090185;28;20662;-69
2023/04/26 10:46:51;;;;;;;7.15;4.00;;;16.30;99.90;;;;;;5091681;28;20156;-71
2023/04/26 10:49:21;;;;;;;7.10;4.27;;;17.50;99.90;;;;;;5089729;28;20810;-69
2023/04/26 10:52:11;;;;;;;9.50;4.45;;;18.40;99.90;;;;;;5090338;28;20184;-68
2023/04/26 10:54:52;;;;;;;6.90;4.10;;;19.90;99.90;;;;;;5091512;28;20172;-71
2023/04/26 10:57:18;;;;;;;6.72;4.10;;;18.40;99.90;;;;;;5091602;28;20279;-72
2023/04/26 11:00:09;;;;;;;9.07;5.63;;;19.80;99.90;;;;;;5089686;28;20187;-72
2023/04/26 11:02:56;;;;;;;5.93;4.03;;;19.40;99.90;;;;;;5090929;28;20210;-70
2023/04/26 11:05:37;;;;;;;5.95;4.63;;;18.00;99.90;;;;;;5092194;28;20168;-69
2023/04/26 11:08:04;;;;;;;6.53;3.95;;;17.50;99.90;;;;;;5090407;28;20246;-70
2023/04/26 11:10:29;;;;;;;8.55;4.57;;;15.80;99.90;;;;;;5091723;28;20176;-69
2023/04/26 11:13:00;;;;;;;6.75;3.80;;;14.70;99.90;;;;;;5091048;28;20256;-68
2023/04/26 11:15:26;;;;;;;3.63;3.27;;;13.90;1.00;;;;;;5091675;28;20651;-71
2023/04/26 11:17:51;;;;;;;7.20;4.07;;;13.90;1.00;;;;;;5091590;28;20216;-70
2023/04/26 11:20:17;;;;;;;4.80;3.60;;;14.30;1.00;;;;;;5091997;28;20172;-69
2023/04/26 11:22:42;;;;;;;5.33;3.50;;;15.60;99.90;;;;;;5089550;28;20179;-71
2023/04/26 11:25:08;;;;;;;6.20;3.75;;;15.60;99.90;;;;;;5090848;28;20172;-69
2023/04/26 11:27:34;;;;;;;5.05;4.00;;;15.90;99.90;;;;;;5065022;28;20313;-70
2023/04/26 11:30:03;;;;;;;7.40;3.92;;;15.70;99.90;;;;;;5084478;28;20205;-69
2023/04/26 11:32:29;;;;;;;6.50;3.67;;;16.30;99.90;;;;;;5088431;28;20168;-67
2023/04/26 11:34:58;;;;;;;5.95;3.80;;;15.70;99.90;;;;;;5090887;28;20187;-68
2023/04/26 11:37:25;;;;;;;8.07;3.60;;;15.60;99.90;;;;;;5078577;28;20286;-69
2023/04/26 11:39:50;;;;;;;6.00;4.60;;;16.00;99.90;;;;;;5083478;28;20176;-70
2023/04/26 11:42:16;;;;;;;5.70;4.68;;;16.20;99.90;;;;;;5087343;28;20258;-69
2023/04/26 11:44:42;;;;;;;8.52;3.47;;;16.50;99.90;;;;;;5088172;28;20206;-68
2023/04/26 11:47:08;;;;;;;4.60;3.90;;;17.10;99.90;;;;;;5087955;28;20266;-70
2023/04/26 11:49:37;;;;;;;5.60;3.63;;;17.90;99.90;;;;;;5092580;28;20259;-70
2023/04/26 11:52:04;;;;;;;4.78;3.80;;;18.20;99.90;;;;;;5089286;28;20290;-69
2023/04/26 11:54:32;;;;;;;6.85;4.13;;;18.00;99.90;;;;;;5091601;28;20171;-68
2023/04/26 11:56:58;;;;;;;6.72;3.67;;;17.70;99.90;;;;;;5091700;28;20323;-70
2023/04/26 11:59:24;;;;;;;6.18;3.83;;;17.60;99.90;;;;;;5091285;28;20183;-69
2023/04/26 12:01:53;;;;;;;6.28;4.68;;;18.00;99.90;;;;;;5088173;28;20171;-68
2023/04/26 12:04:25;;;;;;;10.55;4.72;;;18.50;99.90;;;;;;5092087;28;20171;-68
2023/04/26 12:06:51;;;;;;;6.55;4.03;;;18.70;99.90;;;;;;5088748;28;20604;-71
2023/04/26 12:09:30;;;;;;;5.97;4.32;;;18.00;99.90;;;;;;5089983;28;20644;-68
2023/04/26 12:12:05;;;;;;;10.32;4.45;;;17.80;99.90;;;;;;5087809;28;20560;-67
2023/04/26 12:14:39;;;;;;;7.95;4.30;;;18.10;99.90;;;;;;5091828;28;20176;-67
2023/04/26 12:17:05;;;;;;;8.02;4.30;;;18.00;99.90;;;;;;5090512;28;20203;-67
2023/04/26 12:19:38;;;;;;;8.07;4.70;;;16.80;99.90;;;;;;5089345;28;20649;-66
2023/04/26 12:22:11;;;;;;;6.50;4.13;;;16.20;99.90;;;;;;5089349;28;20234;-66
2023/04/26 12:24:37;;;;;;;6.27;4.80;;;15.00;99.90;;;;;;5089934;28;20187;-68
2023/04/26 12:27:05;;;;;;;8.20;5.03;;;15.00;99.90;;;;;;5089989;28;20195;-67
2023/04/26 12:29:32;;;;;;;5.60;4.50;;;15.10;99.90;;;;;;5090376;28;20273;-67
2023/04/26 12:32:01;;;;;;;5.20;4.47;;;14.80;99.90;;;;;;5089718;28;20176;-67
2023/04/26 12:34:26;;;;;;;7.77;4.97;;;14.60;99.90;;;;;;5090198;28;20172;-69
2023/04/26 12:36:53;;;;;;;6.73;4.80;;;15.30;99.90;;;;;;5091622;28;20187;-65
2023/04/26 12:39:19;;;;;;;9.20;4.73;;;15.50;99.90;;;;;;5089604;28;20195;-66
2023/04/26 12:41:45;;;;;;;8.60;4.60;;;15.90;99.90;;;;;;5089239;28;20635;-67
2023/04/26 12:44:11;;;;;;;9.47;4.50;;;16.50;99.90;;;;;;5090577;28;20660;-68
2023/04/26 12:46:37;;;;;;;6.23;4.87;;;16.80;99.90;;;;;;5090827;28;20195;-68
2023/04/26 12:49:03;;;;;;;6.90;4.37;;;16.70;99.90;;;;;;5090469;28;20182;-66
2023/04/26 12:51:28;;;;;;;6.15;4.43;;;16.90;99.90;;;;;;5088685;28;20180;-67